sensor_id;sensor_type;location;lat;lon;timestamp;temperature;humidity
13659;DHT22;6902;52.158;11.574;2022-08-11T00:01:10;19.00;99.90
13659;DHT22;6902;52.158;11.574;2022-08-11T00:03:45;18.90;99.90
13659;DHT22;6902;52.158;11.574;2022-08-11T00:06:14;18.90;99.90
13659;DHT22;6902;52.158;11.574;2022-08-11T00:08:49;18.80;99.90
13659;DHT22;6902;52.158;11.574;2022-08-11T00:11:17;18.80;99.90
13659;DHT22;6902;52.158;11.574;2022-08-11T00:13:48;18.80;99.90
13659;DHT22;6902;52.158;11.574;2022-08-11T00:16:22;18.80;99.90
13659;DHT22;6902;52.158;11.574;2022-08-11T00:18:52;18.70;99.90
13659;DHT22;6902;52.158;11.574;2022-08-11T00:21:20;18.70;99.90
13659;DHT22;6902;52.158;11.574;2022-08-11T00:23:53;18.70;99.90
13659;DHT22;6902;52.158;11.574;2022-08-11T00:26:22;18.70;99.90
13659;DHT22;6902;52.158;11.574;2022-08-11T00:28:50;18.60;99.90
13659;DHT22;6902;52.158;11.574;2022-08-11T00:31:22;18.60;99.90
13659;DHT22;6902;52.158;11.574;2022-08-11T00:33:51;18.60;99.90
13659;DHT22;6902;52.158;11.574;2022-08-11T00:36:19;18.50;99.90
13659;DHT22;6902;52.158;11.574;2022-08-11T00:38:51;18.50;99.90
13659;DHT22;6902;52.158;11.574;2022-08-11T00:41:30;18.50;99.90
13659;DHT22;6902;52.158;11.574;2022-08-11T00:44:27;18.50;99.90
13659;DHT22;6902;52.158;11.574;2022-08-11T00:47:08;18.40;99.90
13659;DHT22;6902;52.158;11.574;2022-08-11T00:49:51;18.40;99.90
13659;DHT22;6902;52.158;11.574;2022-08-11T00:52:33;18.40;99.90
13659;DHT22;6902;52.158;11.574;2022-08-11T00:55:37;18.40;99.90
13659;DHT22;6902;52.158;11.574;2022-08-11T01:01:19;18.30;99.90
13659;DHT22;6902;52.158;11.574;2022-08-11T01:07:23;18.20;99.90
13659;DHT22;6902;52.158;11.574;2022-08-11T01:10:13;18.20;99.90
13659;DHT22;6902;52.158;11.574;2022-08-11T01:12:58;18.00;99.90
13659;DHT22;6902;52.158;11.574;2022-08-11T01:15:57;18.00;99.90
13659;DHT22;6902;52.158;11.574;2022-08-11T01:19:03;17.90;99.90
13659;DHT22;6902;52.158;11.574;2022-08-11T01:22:05;17.80;99.90
13659;DHT22;6902;52.158;11.574;2022-08-11T01:25:29;17.80;99.90
13659;DHT22;6902;52.158;11.574;2022-08-11T01:31:43;17.70;99.90
13659;DHT22;6902;52.158;11.574;2022-08-11T01:43:57;17.60;99.90
13659;DHT22;6902;52.158;11.574;2022-08-11T01:46:52;17.60;99.90
13659;DHT22;6902;52.158;11.574;2022-08-11T01:49:29;17.60;99.90
13659;DHT22;6902;52.158;11.574;2022-08-11T01:52:06;17.60;99.90
13659;DHT22;6902;52.158;11.574;2022-08-11T01:54:42;17.60;99.90
13659;DHT22;6902;52.158;11.574;2022-08-11T01:57:19;17.60;99.90
13659;DHT22;6902;52.158;11.574;2022-08-11T01:59:58;17.60;99.90
13659;DHT22;6902;52.158;11.574;2022-08-11T02:02:36;17.50;99.90
13659;DHT22;6902;52.158;11.574;2022-08-11T02:05:25;17.50;99.90
13659;DHT22;6902;52.158;11.574;2022-08-11T02:07:59;17.50;99.90
13659;DHT22;6902;52.158;11.574;2022-08-11T02:10:37;17.50;99.90
13659;DHT22;6902;52.158;11.574;2022-08-11T02:13:35;17.40;99.90
13659;DHT22;6902;52.158;11.574;2022-08-11T02:16:12;17.40;99.90
13659;DHT22;6902;52.158;11.574;2022-08-11T02:18:49;17.40;99.90
13659;DHT22;6902;52.158;11.574;2022-08-11T02:21:42;17.40;99.90
13659;DHT22;6902;52.158;11.574;2022-08-11T02:24:33;17.30;99.90
13659;DHT22;6902;52.158;11.574;2022-08-11T02:27:06;17.30;99.90
13659;DHT22;6902;52.158;11.574;2022-08-11T02:29:40;17.30;99.90
13659;DHT22;6902;52.158;11.574;2022-08-11T02:32:14;17.20;99.90
13659;DHT22;6902;52.158;11.574;2022-08-11T02:35:09;17.20;99.90
13659;DHT22;6902;52.158;11.574;2022-08-11T02:37:47;17.20;99.90
13659;DHT22;6902;52.158;11.574;2022-08-11T02:40:28;17.20;99.90
13659;DHT22;6902;52.158;11.574;2022-08-11T02:43:09;17.10;99.90
13659;DHT22;6902;52.158;11.574;2022-08-11T02:45:48;17.10;99.90
13659;DHT22;6902;52.158;11.574;2022-08-11T02:48:29;17.10;99.90
13659;DHT22;6902;52.158;11.574;2022-08-11T02:51:23;17.10;99.90
13659;DHT22;6902;52.158;11.574;2022-08-11T02:53:59;17.00;99.90
13659;DHT22;6902;52.158;11.574;2022-08-11T02:56:39;17.00;99.90
13659;DHT22;6902;52.158;11.574;2022-08-11T02:59:20;17.00;99.90
13659;DHT22;6902;52.158;11.574;2022-08-11T03:02:15;16.90;99.90
13659;DHT22;6902;52.158;11.574;2022-08-11T03:04:51;16.90;99.90
13659;DHT22;6902;52.158;11.574;2022-08-11T03:07:24;16.90;99.90
13659;DHT22;6902;52.158;11.574;2022-08-11T03:09:59;16.90;99.90
13659;DHT22;6902;52.158;11.574;2022-08-11T03:12:33;16.90;99.90
13659;DHT22;6902;52.158;11.574;2022-08-11T03:15:47;16.80;99.90
13659;DHT22;6902;52.158;11.574;2022-08-11T03:18:36;16.80;99.90
13659;DHT22;6902;52.158;11.574;2022-08-11T03:21:15;16.70;99.90
13659;DHT22;6902;52.158;11.574;2022-08-11T03:23:49;16.70;99.90
13659;DHT22;6902;52.158;11.574;2022-08-11T03:26:25;16.70;99.90
13659;DHT22;6902;52.158;11.574;2022-08-11T03:29:03;16.60;99.90
13659;DHT22;6902;52.158;11.574;2022-08-11T03:31:34;16.60;99.90
13659;DHT22;6902;52.158;11.574;2022-08-11T03:34:06;16.50;99.90
13659;DHT22;6902;52.158;11.574;2022-08-11T03:36:53;16.50;99.90
13659;DHT22;6902;52.158;11.574;2022-08-11T03:39:34;16.50;99.90
13659;DHT22;6902;52.158;11.574;2022-08-11T03:42:13;16.50;99.90
13659;DHT22;6902;52.158;11.574;2022-08-11T03:45:00;16.40;99.90
13659;DHT22;6902;52.158;11.574;2022-08-11T03:47:43;16.40;99.90
13659;DHT22;6902;52.158;11.574;2022-08-11T03:50:25;16.30;99.90
13659;DHT22;6902;52.158;11.574;2022-08-11T03:53:04;16.30;99.90
13659;DHT22;6902;52.158;11.574;2022-08-11T03:55:57;16.30;99.90
13659;DHT22;6902;52.158;11.574;2022-08-11T04:02:08;16.30;99.90
13659;DHT22;6902;52.158;11.574;2022-08-11T04:05:21;16.40;99.90
13659;DHT22;6902;52.158;11.574;2022-08-11T04:08:14;16.40;99.90
13659;DHT22;6902;52.158;11.574;2022-08-11T04:14:25;16.40;99.90
13659;DHT22;6902;52.158;11.574;2022-08-11T04:17:59;16.40;99.90
13659;DHT22;6902;52.158;11.574;2022-08-11T04:20:50;16.40;99.90
13659;DHT22;6902;52.158;11.574;2022-08-11T04:24:17;16.40;99.90
13659;DHT22;6902;52.158;11.574;2022-08-11T04:27:20;16.40;99.90
13659;DHT22;6902;52.158;11.574;2022-08-11T04:30:02;16.50;99.90
13659;DHT22;6902;52.158;11.574;2022-08-11T04:32:47;16.60;99.90
13659;DHT22;6902;52.158;11.574;2022-08-11T04:35:33;16.60;99.90
13659;DHT22;6902;52.158;11.574;2022-08-11T04:38:33;16.70;99.90
13659;DHT22;6902;52.158;11.574;2022-08-11T04:41:23;16.70;99.90
13659;DHT22;6902;52.158;11.574;2022-08-11T04:44:38;16.90;99.90
13659;DHT22;6902;52.158;11.574;2022-08-11T04:47:13;17.00;99.90
13659;DHT22;6902;52.158;11.574;2022-08-11T04:50:19;17.10;99.90
13659;DHT22;6902;52.158;11.574;2022-08-11T04:53:33;17.30;99.90
13659;DHT22;6902;52.158;11.574;2022-08-11T04:56:23;17.40;99.90
13659;DHT22;6902;52.158;11.574;2022-08-11T04:59:39;17.50;99.90
13659;DHT22;6902;52.158;11.574;2022-08-11T05:03:01;17.60;99.90
13659;DHT22;6902;52.158;11.574;2022-08-11T05:05:51;17.70;99.90
13659;DHT22;6902;52.158;11.574;2022-08-11T05:09:04;17.90;99.90
13659;DHT22;6902;52.158;11.574;2022-08-11T05:12:08;18.00;99.90
13659;DHT22;6902;52.158;11.574;2022-08-11T05:14:44;18.20;99.90
13659;DHT22;6902;52.158;11.574;2022-08-11T05:17:38;18.30;99.90
13659;DHT22;6902;52.158;11.574;2022-08-11T05:20:24;18.40;99.90
13659;DHT22;6902;52.158;11.574;2022-08-11T05:23:10;18.60;99.90
13659;DHT22;6902;52.158;11.574;2022-08-11T05:25:59;18.70;99.90
13659;DHT22;6902;52.158;11.574;2022-08-11T05:28:50;18.80;99.90
13659;DHT22;6902;52.158;11.574;2022-08-11T05:31:38;19.00;99.90
13659;DHT22;6902;52.158;11.574;2022-08-11T05:34:27;19.20;99.90
13659;DHT22;6902;52.158;11.574;2022-08-11T05:37:18;19.40;99.90
13659;DHT22;6902;52.158;11.574;2022-08-11T05:39:48;19.50;99.90
13659;DHT22;6902;52.158;11.574;2022-08-11T05:42:38;19.60;99.90
13659;DHT22;6902;52.158;11.574;2022-08-11T05:45:26;19.80;99.90
13659;DHT22;6902;52.158;11.574;2022-08-11T05:48:12;19.90;99.90
13659;DHT22;6902;52.158;11.574;2022-08-11T05:51:00;20.00;99.90
13659;DHT22;6902;52.158;11.574;2022-08-11T05:53:48;20.00;99.90
13659;DHT22;6902;52.158;11.574;2022-08-11T05:56:44;20.10;99.90
13659;DHT22;6902;52.158;11.574;2022-08-11T05:59:16;20.20;99.90
13659;DHT22;6902;52.158;11.574;2022-08-11T06:01:45;20.30;99.90
13659;DHT22;6902;52.158;11.574;2022-08-11T06:04:16;20.40;99.90
13659;DHT22;6902;52.158;11.574;2022-08-11T06:06:56;20.60;99.90
13659;DHT22;6902;52.158;11.574;2022-08-11T06:09:28;20.70;99.90
13659;DHT22;6902;52.158;11.574;2022-08-11T06:12:00;20.90;99.90
13659;DHT22;6902;52.158;11.574;2022-08-11T06:14:30;21.00;99.90
13659;DHT22;6902;52.158;11.574;2022-08-11T06:17:02;21.20;99.90
13659;DHT22;6902;52.158;11.574;2022-08-11T06:19:32;21.30;99.90
13659;DHT22;6902;52.158;11.574;2022-08-11T06:22:02;21.40;99.90
13659;DHT22;6902;52.158;11.574;2022-08-11T06:24:29;21.60;99.90
13659;DHT22;6902;52.158;11.574;2022-08-11T06:26:58;21.60;99.90
13659;DHT22;6902;52.158;11.574;2022-08-11T06:29:26;21.70;99.90
13659;DHT22;6902;52.158;11.574;2022-08-11T06:31:57;21.80;99.90
13659;DHT22;6902;52.158;11.574;2022-08-11T06:34:34;21.90;99.90
13659;DHT22;6902;52.158;11.574;2022-08-11T06:37:15;22.00;99.90
13659;DHT22;6902;52.158;11.574;2022-08-11T06:39:50;22.10;99.90
13659;DHT22;6902;52.158;11.574;2022-08-11T06:42:33;22.20;99.90
13659;DHT22;6902;52.158;11.574;2022-08-11T06:45:06;22.40;99.90
13659;DHT22;6902;52.158;11.574;2022-08-11T06:47:41;22.50;99.90
13659;DHT22;6902;52.158;11.574;2022-08-11T06:50:11;22.70;99.90
13659;DHT22;6902;52.158;11.574;2022-08-11T06:52:59;22.90;99.90
13659;DHT22;6902;52.158;11.574;2022-08-11T06:55:27;23.00;99.90
13659;DHT22;6902;52.158;11.574;2022-08-11T06:58:16;23.10;99.90
13659;DHT22;6902;52.158;11.574;2022-08-11T07:01:06;23.30;99.90
13659;DHT22;6902;52.158;11.574;2022-08-11T07:03:42;23.40;99.90
13659;DHT22;6902;52.158;11.574;2022-08-11T07:06:21;23.50;99.90
13659;DHT22;6902;52.158;11.574;2022-08-11T07:09:13;23.70;99.90
13659;DHT22;6902;52.158;11.574;2022-08-11T07:12:28;23.80;99.90
13659;DHT22;6902;52.158;11.574;2022-08-11T07:15:19;23.90;99.90
13659;DHT22;6902;52.158;11.574;2022-08-11T07:18:08;24.00;99.90
13659;DHT22;6902;52.158;11.574;2022-08-11T07:21:08;24.20;99.90
13659;DHT22;6902;52.158;11.574;2022-08-11T07:23:55;24.30;99.90
13659;DHT22;6902;52.158;11.574;2022-08-11T07:26:42;24.50;99.90
13659;DHT22;6902;52.158;11.574;2022-08-11T07:29:31;24.60;99.90
13659;DHT22;6902;52.158;11.574;2022-08-11T07:32:01;24.80;99.90
13659;DHT22;6902;52.158;11.574;2022-08-11T07:34:36;24.90;99.90
13659;DHT22;6902;52.158;11.574;2022-08-11T07:37:11;25.10;99.90
13659;DHT22;6902;52.158;11.574;2022-08-11T07:39:43;25.30;99.90
13659;DHT22;6902;52.158;11.574;2022-08-11T07:42:13;25.50;99.90
13659;DHT22;6902;52.158;11.574;2022-08-11T07:44:41;25.70;99.90
13659;DHT22;6902;52.158;11.574;2022-08-11T07:47:23;25.80;99.90
13659;DHT22;6902;52.158;11.574;2022-08-11T07:50:09;26.00;99.90
13659;DHT22;6902;52.158;11.574;2022-08-11T07:52:57;26.10;99.90
13659;DHT22;6902;52.158;11.574;2022-08-11T07:55:25;26.20;99.90
13659;DHT22;6902;52.158;11.574;2022-08-11T07:57:55;26.30;99.90
13659;DHT22;6902;52.158;11.574;2022-08-11T08:00:44;26.50;99.90
13659;DHT22;6902;52.158;11.574;2022-08-11T08:03:30;26.50;99.90
13659;DHT22;6902;52.158;11.574;2022-08-11T08:06:15;26.80;99.90
13659;DHT22;6902;52.158;11.574;2022-08-11T08:09:03;26.90;99.90
13659;DHT22;6902;52.158;11.574;2022-08-11T08:11:48;27.00;99.90
13659;DHT22;6902;52.158;11.574;2022-08-11T08:17:51;27.20;99.90
13659;DHT22;6902;52.158;11.574;2022-08-11T08:20:24;27.30;99.90
13659;DHT22;6902;52.158;11.574;2022-08-11T08:22:52;27.40;99.90
13659;DHT22;6902;52.158;11.574;2022-08-11T08:25:24;27.40;99.90
13659;DHT22;6902;52.158;11.574;2022-08-11T08:27:54;27.50;99.90
13659;DHT22;6902;52.158;11.574;2022-08-11T08:38:05;28.10;99.90
13659;DHT22;6902;52.158;11.574;2022-08-11T08:40:34;28.10;99.90
13659;DHT22;6902;52.158;11.574;2022-08-11T08:43:06;28.10;99.90
13659;DHT22;6902;52.158;11.574;2022-08-11T08:45:36;28.20;99.90
13659;DHT22;6902;52.158;11.574;2022-08-11T08:48:07;28.30;99.90
13659;DHT22;6902;52.158;11.574;2022-08-11T08:50:37;28.30;99.90
13659;DHT22;6902;52.158;11.574;2022-08-11T08:53:26;28.40;99.90
13659;DHT22;6902;52.158;11.574;2022-08-11T08:55:59;28.40;99.90
13659;DHT22;6902;52.158;11.574;2022-08-11T08:58:26;28.50;99.90
13659;DHT22;6902;52.158;11.574;2022-08-11T09:00:56;28.50;99.90
13659;DHT22;6902;52.158;11.574;2022-08-11T09:03:24;28.50;99.90
13659;DHT22;6902;52.158;11.574;2022-08-11T09:05:53;28.60;99.90
13659;DHT22;6902;52.158;11.574;2022-08-11T09:08:21;28.70;99.90
13659;DHT22;6902;52.158;11.574;2022-08-11T09:10:49;28.70;99.90
13659;DHT22;6902;52.158;11.574;2022-08-11T09:13:41;28.80;99.90
13659;DHT22;6902;52.158;11.574;2022-08-11T09:16:10;28.70;99.90
13659;DHT22;6902;52.158;11.574;2022-08-11T09:18:40;28.80;99.90
13659;DHT22;6902;52.158;11.574;2022-08-11T09:21:11;28.90;99.90
13659;DHT22;6902;52.158;11.574;2022-08-11T09:23:40;29.00;99.90
13659;DHT22;6902;52.158;11.574;2022-08-11T09:26:25;29.10;99.90
13659;DHT22;6902;52.158;11.574;2022-08-11T09:29:13;29.20;99.90
13659;DHT22;6902;52.158;11.574;2022-08-11T09:31:41;29.30;99.90
13659;DHT22;6902;52.158;11.574;2022-08-11T09:34:09;29.50;99.90
13659;DHT22;6902;52.158;11.574;2022-08-11T09:36:38;29.50;99.90
13659;DHT22;6902;52.158;11.574;2022-08-11T09:39:23;29.60;99.90
13659;DHT22;6902;52.158;11.574;2022-08-11T09:42:08;29.60;99.90
13659;DHT22;6902;52.158;11.574;2022-08-11T09:44:40;29.70;99.90
13659;DHT22;6902;52.158;11.574;2022-08-11T09:47:17;29.70;99.90
13659;DHT22;6902;52.158;11.574;2022-08-11T09:49:45;29.80;99.90
13659;DHT22;6902;52.158;11.574;2022-08-11T09:52:16;29.80;99.90
13659;DHT22;6902;52.158;11.574;2022-08-11T09:54:47;29.90;99.90
13659;DHT22;6902;52.158;11.574;2022-08-11T09:57:17;29.90;99.90
13659;DHT22;6902;52.158;11.574;2022-08-11T10:00:07;30.10;99.90
13659;DHT22;6902;52.158;11.574;2022-08-11T10:02:39;30.10;99.90
13659;DHT22;6902;52.158;11.574;2022-08-11T10:05:08;30.10;99.90
13659;DHT22;6902;52.158;11.574;2022-08-11T10:07:53;30.10;99.90
13659;DHT22;6902;52.158;11.574;2022-08-11T10:10:22;30.20;99.90
13659;DHT22;6902;52.158;11.574;2022-08-11T10:12:55;30.10;99.90
13659;DHT22;6902;52.158;11.574;2022-08-11T10:15:27;30.10;99.90
13659;DHT22;6902;52.158;11.574;2022-08-11T10:18:05;30.20;99.90
13659;DHT22;6902;52.158;11.574;2022-08-11T10:20:54;30.20;99.90
13659;DHT22;6902;52.158;11.574;2022-08-11T10:23:23;30.30;99.90
13659;DHT22;6902;52.158;11.574;2022-08-11T10:26:08;30.40;99.90
13659;DHT22;6902;52.158;11.574;2022-08-11T10:29:05;30.40;99.90
13659;DHT22;6902;52.158;11.574;2022-08-11T10:31:55;30.50;99.90
13659;DHT22;6902;52.158;11.574;2022-08-11T10:34:42;30.60;99.90
13659;DHT22;6902;52.158;11.574;2022-08-11T10:37:11;30.60;99.90
13659;DHT22;6902;52.158;11.574;2022-08-11T10:39:39;30.60;99.90
13659;DHT22;6902;52.158;11.574;2022-08-11T10:42:07;30.60;99.90
13659;DHT22;6902;52.158;11.574;2022-08-11T10:44:56;30.70;99.90
13659;DHT22;6902;52.158;11.574;2022-08-11T10:47:25;30.80;99.90
13659;DHT22;6902;52.158;11.574;2022-08-11T10:50:01;30.90;99.90
13659;DHT22;6902;52.158;11.574;2022-08-11T10:52:47;30.90;99.90
13659;DHT22;6902;52.158;11.574;2022-08-11T10:55:33;31.00;99.90
13659;DHT22;6902;52.158;11.574;2022-08-11T10:58:19;30.90;99.90
13659;DHT22;6902;52.158;11.574;2022-08-11T11:11:20;30.90;99.90
13659;DHT22;6902;52.158;11.574;2022-08-11T11:13:49;31.20;99.90
13659;DHT22;6902;52.158;11.574;2022-08-11T11:16:35;31.30;99.90
13659;DHT22;6902;52.158;11.574;2022-08-11T11:19:23;31.40;99.90
13659;DHT22;6902;52.158;11.574;2022-08-11T11:24:31;31.30;99.90
13659;DHT22;6902;52.158;11.574;2022-08-11T11:27:13;31.30;99.90
13659;DHT22;6902;52.158;11.574;2022-08-11T11:29:53;31.30;99.90
13659;DHT22;6902;52.158;11.574;2022-08-11T11:32:28;31.30;99.90
13659;DHT22;6902;52.158;11.574;2022-08-11T11:35:12;31.30;99.90
13659;DHT22;6902;52.158;11.574;2022-08-11T11:37:45;31.20;99.90
13659;DHT22;6902;52.158;11.574;2022-08-11T11:40:16;31.30;99.90
13659;DHT22;6902;52.158;11.574;2022-08-11T11:42:48;31.30;99.90
13659;DHT22;6902;52.158;11.574;2022-08-11T11:47:44;31.40;99.90
13659;DHT22;6902;52.158;11.574;2022-08-11T11:50:13;31.50;99.90
13659;DHT22;6902;52.158;11.574;2022-08-11T11:55:09;31.40;99.90
13659;DHT22;6902;52.158;11.574;2022-08-11T11:57:37;31.40;99.90
13659;DHT22;6902;52.158;11.574;2022-08-11T12:00:22;31.50;99.90
13659;DHT22;6902;52.158;11.574;2022-08-11T12:08:11;30.50;99.90
13659;DHT22;6902;52.158;11.574;2022-08-11T12:13:15;31.40;99.90
13659;DHT22;6902;52.158;11.574;2022-08-11T12:16:01;31.50;99.90
13659;DHT22;6902;52.158;11.574;2022-08-11T12:18:31;31.30;99.90
13659;DHT22;6902;52.158;11.574;2022-08-11T12:21:03;31.30;99.90
13659;DHT22;6902;52.158;11.574;2022-08-11T12:23:32;31.20;99.90
13659;DHT22;6902;52.158;11.574;2022-08-11T12:26:18;31.10;99.90
13659;DHT22;6902;52.158;11.574;2022-08-11T12:29:04;31.00;99.90
13659;DHT22;6902;52.158;11.574;2022-08-11T12:31:33;31.00;99.90
13659;DHT22;6902;52.158;11.574;2022-08-11T12:34:02;31.00;99.90
13659;DHT22;6902;52.158;11.574;2022-08-11T12:36:35;31.00;99.90
13659;DHT22;6902;52.158;11.574;2022-08-11T12:39:08;31.00;99.90
13659;DHT22;6902;52.158;11.574;2022-08-11T12:41:37;30.90;99.70
13659;DHT22;6902;52.158;11.574;2022-08-11T12:44:26;30.90;99.90
13659;DHT22;6902;52.158;11.574;2022-08-11T12:47:15;30.70;99.90
13659;DHT22;6902;52.158;11.574;2022-08-11T12:49:45;30.60;98.70
13659;DHT22;6902;52.158;11.574;2022-08-11T12:52:40;30.60;99.30
13659;DHT22;6902;52.158;11.574;2022-08-11T12:55:12;30.50;99.60
13659;DHT22;6902;52.158;11.574;2022-08-11T12:58:08;30.60;99.70
13659;DHT22;6902;52.158;11.574;2022-08-11T13:00:43;30.60;99.30
13659;DHT22;6902;52.158;11.574;2022-08-11T13:03:28;30.60;99.70
13659;DHT22;6902;52.158;11.574;2022-08-11T13:06:12;30.60;99.60
13659;DHT22;6902;52.158;11.574;2022-08-11T13:08:42;30.60;99.80
13659;DHT22;6902;52.158;11.574;2022-08-11T13:11:11;30.60;99.90
13659;DHT22;6902;52.158;11.574;2022-08-11T13:13:56;30.60;99.20
13659;DHT22;6902;52.158;11.574;2022-08-11T13:16:26;30.50;98.40
13659;DHT22;6902;52.158;11.574;2022-08-11T13:18:55;30.50;98.70
13659;DHT22;6902;52.158;11.574;2022-08-11T13:21:23;30.50;98.80
13659;DHT22;6902;52.158;11.574;2022-08-11T13:23:54;30.40;98.60
13659;DHT22;6902;52.158;11.574;2022-08-11T13:26:22;30.40;99.00
13659;DHT22;6902;52.158;11.574;2022-08-11T13:28:50;30.40;98.40
13659;DHT22;6902;52.158;11.574;2022-08-11T13:31:17;30.40;98.50
13659;DHT22;6902;52.158;11.574;2022-08-11T13:33:47;30.40;98.90
13659;DHT22;6902;52.158;11.574;2022-08-11T13:36:18;30.30;99.00
13659;DHT22;6902;52.158;11.574;2022-08-11T13:38:50;30.30;98.80
13659;DHT22;6902;52.158;11.574;2022-08-11T13:41:21;30.30;98.20
13659;DHT22;6902;52.158;11.574;2022-08-11T13:44:04;30.20;97.90
13659;DHT22;6902;52.158;11.574;2022-08-11T13:46:32;30.10;98.10
13659;DHT22;6902;52.158;11.574;2022-08-11T13:49:00;30.10;98.60
13659;DHT22;6902;52.158;11.574;2022-08-11T13:51:28;30.10;98.40
13659;DHT22;6902;52.158;11.574;2022-08-11T13:53:59;30.10;97.70
13659;DHT22;6902;52.158;11.574;2022-08-11T13:56:28;30.00;98.20
13659;DHT22;6902;52.158;11.574;2022-08-11T13:58:57;30.00;98.40
13659;DHT22;6902;52.158;11.574;2022-08-11T14:01:28;30.00;97.70
13659;DHT22;6902;52.158;11.574;2022-08-11T14:04:02;30.00;98.30
13659;DHT22;6902;52.158;11.574;2022-08-11T14:06:31;30.00;99.10
13659;DHT22;6902;52.158;11.574;2022-08-11T14:09:00;30.00;98.70
13659;DHT22;6902;52.158;11.574;2022-08-11T14:11:30;30.00;98.30
13659;DHT22;6902;52.158;11.574;2022-08-11T14:14:25;30.10;98.20
13659;DHT22;6902;52.158;11.574;2022-08-11T14:16:55;30.10;98.30
13659;DHT22;6902;52.158;11.574;2022-08-11T14:19:24;30.10;98.30
13659;DHT22;6902;52.158;11.574;2022-08-11T14:21:52;30.10;97.80
13659;DHT22;6902;52.158;11.574;2022-08-11T14:27:05;30.00;97.30
13659;DHT22;6902;52.158;11.574;2022-08-11T14:29:33;30.00;96.70
13659;DHT22;6902;52.158;11.574;2022-08-11T14:32:06;30.00;97.30
13659;DHT22;6902;52.158;11.574;2022-08-11T14:34:35;30.00;97.20
13659;DHT22;6902;52.158;11.574;2022-08-11T14:37:06;30.10;96.80
13659;DHT22;6902;52.158;11.574;2022-08-11T14:39:41;30.10;97.50
13659;DHT22;6902;52.158;11.574;2022-08-11T14:42:12;30.10;97.30
13659;DHT22;6902;52.158;11.574;2022-08-11T14:45:00;30.10;97.50
13659;DHT22;6902;52.158;11.574;2022-08-11T14:47:43;30.10;97.00
13659;DHT22;6902;52.158;11.574;2022-08-11T14:50:14;30.10;97.00
13659;DHT22;6902;52.158;11.574;2022-08-11T14:52:46;30.10;97.30
13659;DHT22;6902;52.158;11.574;2022-08-11T14:55:15;30.10;97.00
13659;DHT22;6902;52.158;11.574;2022-08-11T14:58:01;30.10;96.30
13659;DHT22;6902;52.158;11.574;2022-08-11T15:00:30;30.10;96.30
13659;DHT22;6902;52.158;11.574;2022-08-11T15:02:58;30.10;96.50
13659;DHT22;6902;52.158;11.574;2022-08-11T15:05:44;30.10;96.40
13659;DHT22;6902;52.158;11.574;2022-08-11T15:08:13;30.10;97.00
13659;DHT22;6902;52.158;11.574;2022-08-11T15:10:41;30.10;96.60
13659;DHT22;6902;52.158;11.574;2022-08-11T15:13:10;30.00;96.60
13659;DHT22;6902;52.158;11.574;2022-08-11T15:15:38;30.00;96.10
13659;DHT22;6902;52.158;11.574;2022-08-11T15:18:24;30.00;96.70
13659;DHT22;6902;52.158;11.574;2022-08-11T15:20:52;30.00;97.10
13659;DHT22;6902;52.158;11.574;2022-08-11T15:23:38;30.00;96.30
13659;DHT22;6902;52.158;11.574;2022-08-11T15:26:36;30.00;96.30
13659;DHT22;6902;52.158;11.574;2022-08-11T15:29:29;30.00;96.60
13659;DHT22;6902;52.158;11.574;2022-08-11T15:32:16;29.90;96.20
13659;DHT22;6902;52.158;11.574;2022-08-11T15:35:02;30.00;96.90
13659;DHT22;6902;52.158;11.574;2022-08-11T15:37:52;29.90;96.70
13659;DHT22;6902;52.158;11.574;2022-08-11T15:40:23;29.90;96.10
13659;DHT22;6902;52.158;11.574;2022-08-11T15:43:12;29.90;96.60
13659;DHT22;6902;52.158;11.574;2022-08-11T15:46:05;29.90;96.00
13659;DHT22;6902;52.158;11.574;2022-08-11T15:48:40;29.90;96.00
13659;DHT22;6902;52.158;11.574;2022-08-11T15:51:11;29.90;95.70
13659;DHT22;6902;52.158;11.574;2022-08-11T15:53:42;29.90;95.50
13659;DHT22;6902;52.158;11.574;2022-08-11T15:56:12;29.80;95.60
13659;DHT22;6902;52.158;11.574;2022-08-11T15:58:44;29.80;95.50
13659;DHT22;6902;52.158;11.574;2022-08-11T16:01:32;29.80;95.80
13659;DHT22;6902;52.158;11.574;2022-08-11T16:04:22;29.80;95.20
13659;DHT22;6902;52.158;11.574;2022-08-11T16:06:53;29.70;96.00
13659;DHT22;6902;52.158;11.574;2022-08-11T16:09:25;29.70;95.40
13659;DHT22;6902;52.158;11.574;2022-08-11T16:11:55;29.60;96.40
13659;DHT22;6902;52.158;11.574;2022-08-11T16:14:25;29.60;96.40
13659;DHT22;6902;52.158;11.574;2022-08-11T16:17:14;29.50;96.00
13659;DHT22;6902;52.158;11.574;2022-08-11T16:19:44;29.50;95.70
13659;DHT22;6902;52.158;11.574;2022-08-11T16:22:14;29.50;96.00
13659;DHT22;6902;52.158;11.574;2022-08-11T16:24:44;29.50;95.70
13659;DHT22;6902;52.158;11.574;2022-08-11T16:27:13;29.50;95.80
13659;DHT22;6902;52.158;11.574;2022-08-11T16:29:45;29.40;95.10
13659;DHT22;6902;52.158;11.574;2022-08-11T16:32:17;29.40;95.80
13659;DHT22;6902;52.158;11.574;2022-08-11T16:34:50;29.50;96.50
13659;DHT22;6902;52.158;11.574;2022-08-11T16:37:36;29.40;95.60
13659;DHT22;6902;52.158;11.574;2022-08-11T16:40:22;29.40;95.50
13659;DHT22;6902;52.158;11.574;2022-08-11T16:42:50;29.40;95.80
13659;DHT22;6902;52.158;11.574;2022-08-11T16:45:37;29.40;96.00
13659;DHT22;6902;52.158;11.574;2022-08-11T16:48:26;29.40;95.90
13659;DHT22;6902;52.158;11.574;2022-08-11T16:50:55;29.40;96.10
13659;DHT22;6902;52.158;11.574;2022-08-11T16:53:27;29.40;96.30
13659;DHT22;6902;52.158;11.574;2022-08-11T16:55:57;29.30;96.20
13659;DHT22;6902;52.158;11.574;2022-08-11T16:58:29;29.30;96.20
13659;DHT22;6902;52.158;11.574;2022-08-11T17:01:15;29.30;96.10
13659;DHT22;6902;52.158;11.574;2022-08-11T17:03:51;29.20;96.10
13659;DHT22;6902;52.158;11.574;2022-08-11T17:06:41;29.20;96.30
13659;DHT22;6902;52.158;11.574;2022-08-11T17:09:29;29.20;96.10
13659;DHT22;6902;52.158;11.574;2022-08-11T17:12:16;29.20;96.60
13659;DHT22;6902;52.158;11.574;2022-08-11T17:15:07;29.20;96.30
13659;DHT22;6902;52.158;11.574;2022-08-11T17:17:57;29.20;96.50
13659;DHT22;6902;52.158;11.574;2022-08-11T17:20:27;29.10;96.10
13659;DHT22;6902;52.158;11.574;2022-08-11T17:22:55;29.10;96.00
13659;DHT22;6902;52.158;11.574;2022-08-11T17:25:41;29.00;95.90
13659;DHT22;6902;52.158;11.574;2022-08-11T17:28:09;29.00;96.00
13659;DHT22;6902;52.158;11.574;2022-08-11T17:30:38;28.90;96.10
13659;DHT22;6902;52.158;11.574;2022-08-11T17:33:26;28.90;96.20
13659;DHT22;6902;52.158;11.574;2022-08-11T17:36:15;28.80;96.20
13659;DHT22;6902;52.158;11.574;2022-08-11T17:38:45;28.80;96.30
13659;DHT22;6902;52.158;11.574;2022-08-11T17:41:14;28.80;96.30
13659;DHT22;6902;52.158;11.574;2022-08-11T17:44:00;28.70;96.30
13659;DHT22;6902;52.158;11.574;2022-08-11T17:46:45;28.70;96.30
13659;DHT22;6902;52.158;11.574;2022-08-11T17:49:31;28.70;96.50
13659;DHT22;6902;52.158;11.574;2022-08-11T17:52:04;28.60;97.10